sensor_id;sensor_type;location;lat;lon;timestamp;P1;durP1;ratioP1;P2;durP2;ratioP2
26540;SDS011;14206;50.202;10.948;2023-09-07T00:02:09;1.77;;;1.67;;
26540;SDS011;14206;50.202;10.948;2023-09-07T00:04:37;1.60;;;1.50;;
26540;SDS011;14206;50.202;10.948;2023-09-07T00:07:04;1.50;;;1.40;;
26540;SDS011;14206;50.202;10.948;2023-09-07T00:09:31;1.80;;;1.60;;
26540;SDS011;14206;50.202;10.948;2023-09-07T00:11:58;1.77;;;1.50;;
26540;SDS011;14206;50.202;10.948;2023-09-07T00:14:25;1.45;;;1.35;;
26540;SDS011;14206;50.202;10.948;2023-09-07T00:16:52;1.42;;;1.33;;
26540;SDS011;14206;50.202;10.948;2023-09-07T00:19:19;1.55;;;1.45;;
26540;SDS011;14206;50.202;10.948;2023-09-07T00:21:46;1.50;;;1.38;;
26540;SDS011;14206;50.202;10.948;2023-09-07T00:24:13;2.33;;;1.70;;
26540;SDS011;14206;50.202;10.948;2023-09-07T00:26:49;1.60;;;1.50;;
26540;SDS011;14206;50.202;10.948;2023-09-07T00:29:18;1.38;;;1.27;;
26540;SDS011;14206;50.202;10.948;2023-09-07T00:31:45;1.50;;;1.40;;
26540;SDS011;14206;50.202;10.948;2023-09-07T00:34:12;1.52;;;1.42;;
26540;SDS011;14206;50.202;10.948;2023-09-07T00:36:40;1.40;;;1.30;;
26540;SDS011;14206;50.202;10.948;2023-09-07T00:39:06;1.60;;;1.50;;
26540;SDS011;14206;50.202;10.948;2023-09-07T00:41:34;1.77;;;1.58;;
26540;SDS011;14206;50.202;10.948;2023-09-07T00:44:01;1.70;;;1.60;;
26540;SDS011;14206;50.202;10.948;2023-09-07T00:46:28;1.90;;;1.80;;
26540;SDS011;14206;50.202;10.948;2023-09-07T00:48:56;1.95;;;1.75;;
26540;SDS011;14206;50.202;10.948;2023-09-07T00:51:23;1.88;;;1.73;;
26540;SDS011;14206;50.202;10.948;2023-09-07T00:53:52;1.95;;;1.75;;
26540;SDS011;14206;50.202;10.948;2023-09-07T00:56:20;2.03;;;1.83;;
26540;SDS011;14206;50.202;10.948;2023-09-07T00:58:47;2.28;;;1.90;;
26540;SDS011;14206;50.202;10.948;2023-09-07T01:01:14;2.05;;;1.85;;
26540;SDS011;14206;50.202;10.948;2023-09-07T01:03:41;2.63;;;1.88;;
26540;SDS011;14206;50.202;10.948;2023-09-07T01:08:57;1.98;;;1.77;;
26540;SDS011;14206;50.202;10.948;2023-09-07T01:11:35;2.17;;;1.88;;
26540;SDS011;14206;50.202;10.948;2023-09-07T01:14:03;2.55;;;1.90;;
26540;SDS011;14206;50.202;10.948;2023-09-07T01:16:31;2.08;;;1.60;;
26540;SDS011;14206;50.202;10.948;2023-09-07T01:19:01;1.90;;;1.70;;
26540;SDS011;14206;50.202;10.948;2023-09-07T01:21:35;1.70;;;1.58;;
26540;SDS011;14206;50.202;10.948;2023-09-07T01:24:06;1.80;;;1.63;;
26540;SDS011;14206;50.202;10.948;2023-09-07T01:26:38;1.95;;;1.75;;
26540;SDS011;14206;50.202;10.948;2023-09-07T01:29:06;2.47;;;1.60;;
26540;SDS011;14206;50.202;10.948;2023-09-07T01:31:38;1.70;;;1.60;;
26540;SDS011;14206;50.202;10.948;2023-09-07T01:34:07;1.50;;;1.40;;
26540;SDS011;14206;50.202;10.948;2023-09-07T01:36:37;1.95;;;1.85;;
26540;SDS011;14206;50.202;10.948;2023-09-07T01:39:04;1.80;;;1.70;;
26540;SDS011;14206;50.202;10.948;2023-09-07T01:41:34;1.75;;;1.65;;
26540;SDS011;14206;50.202;10.948;2023-09-07T01:44:02;2.00;;;1.80;;
26540;SDS011;14206;50.202;10.948;2023-09-07T01:46:29;2.47;;;2.28;;
26540;SDS011;14206;50.202;10.948;2023-09-07T01:48:56;2.03;;;1.83;;
26540;SDS011;14206;50.202;10.948;2023-09-07T01:51:23;2.13;;;1.65;;
26540;SDS011;14206;50.202;10.948;2023-09-07T01:53:54;2.40;;;1.95;;
26540;SDS011;14206;50.202;10.948;2023-09-07T01:56:22;1.65;;;1.55;;
26540;SDS011;14206;50.202;10.948;2023-09-07T01:58:51;2.05;;;1.90;;
26540;SDS011;14206;50.202;10.948;2023-09-07T02:01:25;1.83;;;1.70;;
26540;SDS011;14206;50.202;10.948;2023-09-07T02:03:54;1.83;;;1.63;;
26540;SDS011;14206;50.202;10.948;2023-09-07T02:06:20;1.70;;;1.60;;
26540;SDS011;14206;50.202;10.948;2023-09-07T02:08:48;2.72;;;1.75;;
26540;SDS011;14206;50.202;10.948;2023-09-07T02:11:15;2.20;;;1.90;;
26540;SDS011;14206;50.202;10.948;2023-09-07T02:13:43;1.77;;;1.65;;
26540;SDS011;14206;50.202;10.948;2023-09-07T02:16:10;1.98;;;1.80;;
26540;SDS011;14206;50.202;10.948;2023-09-07T02:18:37;1.88;;;1.73;;
26540;SDS011;14206;50.202;10.948;2023-09-07T02:21:06;1.98;;;1.77;;
26540;SDS011;14206;50.202;10.948;2023-09-07T02:23:33;1.60;;;1.50;;
26540;SDS011;14206;50.202;10.948;2023-09-07T02:25:59;2.20;;;2.00;;
26540;SDS011;14206;50.202;10.948;2023-09-07T02:28:26;1.85;;;1.70;;
26540;SDS011;14206;50.202;10.948;2023-09-07T02:30:54;1.70;;;1.60;;
26540;SDS011;14206;50.202;10.948;2023-09-07T02:33:21;1.95;;;1.83;;
26540;SDS011;14206;50.202;10.948;2023-09-07T02:35:48;1.80;;;1.70;;
26540;SDS011;14206;50.202;10.948;2023-09-07T02:38:16;1.90;;;1.75;;
26540;SDS011;14206;50.202;10.948;2023-09-07T02:40:43;1.90;;;1.70;;
26540;SDS011;14206;50.202;10.948;2023-09-07T02:43:12;2.10;;;1.90;;
26540;SDS011;14206;50.202;10.948;2023-09-07T02:45:39;1.83;;;1.63;;
26540;SDS011;14206;50.202;10.948;2023-09-07T02:48:12;1.98;;;1.77;;
26540;SDS011;14206;50.202;10.948;2023-09-07T02:50:39;1.80;;;1.70;;
26540;SDS011;14206;50.202;10.948;2023-09-07T02:53:06;1.70;;;1.60;;
26540;SDS011;14206;50.202;10.948;2023-09-07T02:55:33;2.20;;;2.00;;
26540;SDS011;14206;50.202;10.948;2023-09-07T02:58:02;1.88;;;1.67;;
26540;SDS011;14206;50.202;10.948;2023-09-07T03:00:29;2.85;;;1.70;;
26540;SDS011;14206;50.202;10.948;2023-09-07T03:02:57;1.98;;;1.70;;
26540;SDS011;14206;50.202;10.948;2023-09-07T03:05:26;2.03;;;1.83;;
26540;SDS011;14206;50.202;10.948;2023-09-07T03:07:54;2.15;;;1.95;;
26540;SDS011;14206;50.202;10.948;2023-09-07T03:10:21;2.40;;;1.98;;
26540;SDS011;14206;50.202;10.948;2023-09-07T03:12:48;2.42;;;2.00;;
26540;SDS011;14206;50.202;10.948;2023-09-07T03:15:15;2.13;;;1.67;;
26540;SDS011;14206;50.202;10.948;2023-09-07T03:17:45;2.15;;;1.70;;
26540;SDS011;14206;50.202;10.948;2023-09-07T03:20:12;2.30;;;1.80;;
26540;SDS011;14206;50.202;10.948;2023-09-07T03:22:47;2.22;;;2.03;;
26540;SDS011;14206;50.202;10.948;2023-09-07T03:25:14;1.80;;;1.70;;
26540;SDS011;14206;50.202;10.948;2023-09-07T03:27:41;2.85;;;2.00;;
26540;SDS011;14206;50.202;10.948;2023-09-07T03:30:10;1.65;;;1.55;;
26540;SDS011;14206;50.202;10.948;2023-09-07T03:32:37;2.10;;;1.90;;
26540;SDS011;14206;50.202;10.948;2023-09-07T03:35:05;1.92;;;1.77;;
26540;SDS011;14206;50.202;10.948;2023-09-07T03:37:35;2.35;;;2.15;;
26540;SDS011;14206;50.202;10.948;2023-09-07T03:40:06;1.90;;;1.67;;
26540;SDS011;14206;50.202;10.948;2023-09-07T03:42:36;2.10;;;1.90;;
26540;SDS011;14206;50.202;10.948;2023-09-07T03:45:04;2.25;;;2.03;;
26540;SDS011;14206;50.202;10.948;2023-09-07T03:47:32;1.90;;;1.70;;
26540;SDS011;14206;50.202;10.948;2023-09-07T03:50:00;2.13;;;1.92;;
26540;SDS011;14206;50.202;10.948;2023-09-07T03:52:29;2.03;;;1.80;;
26540;SDS011;14206;50.202;10.948;2023-09-07T03:54:57;3.60;;;1.70;;
26540;SDS011;14206;50.202;10.948;2023-09-07T03:57:26;2.00;;;1.80;;
26540;SDS011;14206;50.202;10.948;2023-09-07T03:59:54;1.95;;;1.75;;
26540;SDS011;14206;50.202;10.948;2023-09-07T04:02:23;2.30;;;1.77;;
26540;SDS011;14206;50.202;10.948;2023-09-07T04:04:52;2.15;;;1.90;;
26540;SDS011;14206;50.202;10.948;2023-09-07T04:07:21;2.10;;;1.90;;
26540;SDS011;14206;50.202;10.948;2023-09-07T04:09:49;1.75;;;1.65;;
26540;SDS011;14206;50.202;10.948;2023-09-07T04:12:17;1.60;;;1.50;;
26540;SDS011;14206;50.202;10.948;2023-09-07T04:14:44;1.70;;;1.60;;
26540;SDS011;14206;50.202;10.948;2023-09-07T04:17:11;1.92;;;1.80;;
26540;SDS011;14206;50.202;10.948;2023-09-07T04:19:39;1.88;;;1.70;;
26540;SDS011;14206;50.202;10.948;2023-09-07T04:22:06;1.92;;;1.77;;
26540;SDS011;14206;50.202;10.948;2023-09-07T04:24:33;1.80;;;1.70;;
26540;SDS011;14206;50.202;10.948;2023-09-07T04:27:01;1.80;;;1.70;;
26540;SDS011;14206;50.202;10.948;2023-09-07T04:29:31;1.95;;;1.77;;
26540;SDS011;14206;50.202;10.948;2023-09-07T04:31:58;1.60;;;1.50;;
26540;SDS011;14206;50.202;10.948;2023-09-07T04:34:24;1.73;;;1.63;;
26540;SDS011;14206;50.202;10.948;2023-09-07T04:36:53;2.00;;;1.80;;
26540;SDS011;14206;50.202;10.948;2023-09-07T04:39:20;2.20;;;1.65;;
26540;SDS011;14206;50.202;10.948;2023-09-07T04:41:47;1.95;;;1.80;;
26540;SDS011;14206;50.202;10.948;2023-09-07T04:44:14;2.10;;;1.80;;
26540;SDS011;14206;50.202;10.948;2023-09-07T04:46:42;1.83;;;1.73;;
26540;SDS011;14206;50.202;10.948;2023-09-07T04:49:10;2.20;;;2.00;;
26540;SDS011;14206;50.202;10.948;2023-09-07T04:51:37;1.80;;;1.70;;
26540;SDS011;14206;50.202;10.948;2023-09-07T04:54:04;2.35;;;1.90;;
26540;SDS011;14206;50.202;10.948;2023-09-07T04:56:31;2.38;;;1.65;;
26540;SDS011;14206;50.202;10.948;2023-09-07T04:58:58;1.75;;;1.60;;
26540;SDS011;14206;50.202;10.948;2023-09-07T05:01:26;1.70;;;1.60;;
26540;SDS011;14206;50.202;10.948;2023-09-07T05:03:54;2.00;;;1.65;;
26540;SDS011;14206;50.202;10.948;2023-09-07T05:06:21;1.85;;;1.75;;
26540;SDS011;14206;50.202;10.948;2023-09-07T05:08:56;2.72;;;1.80;;
26540;SDS011;14206;50.202;10.948;2023-09-07T05:11:23;1.95;;;1.60;;
26540;SDS011;14206;50.202;10.948;2023-09-07T05:13:57;3.00;;;1.80;;
26540;SDS011;14206;50.202;10.948;2023-09-07T05:16:25;2.03;;;1.88;;
26540;SDS011;14206;50.202;10.948;2023-09-07T05:18:52;2.00;;;1.80;;
26540;SDS011;14206;50.202;10.948;2023-09-07T05:21:19;1.80;;;1.70;;
26540;SDS011;14206;50.202;10.948;2023-09-07T05:23:46;1.70;;;1.60;;
26540;SDS011;14206;50.202;10.948;2023-09-07T05:26:13;2.38;;;1.67;;
26540;SDS011;14206;50.202;10.948;2023-09-07T05:28:40;2.05;;;1.83;;
26540;SDS011;14206;50.202;10.948;2023-09-07T05:31:12;2.78;;;2.00;;
26540;SDS011;14206;50.202;10.948;2023-09-07T05:33:40;2.05;;;1.85;;
26540;SDS011;14206;50.202;10.948;2023-09-07T05:36:06;1.95;;;1.75;;
26540;SDS011;14206;50.202;10.948;2023-09-07T05:38:34;2.05;;;1.80;;
26540;SDS011;14206;50.202;10.948;2023-09-07T05:41:03;1.70;;;1.60;;
26540;SDS011;14206;50.202;10.948;2023-09-07T05:43:30;2.00;;;1.80;;
26540;SDS011;14206;50.202;10.948;2023-09-07T05:45:59;2.17;;;1.92;;
26540;SDS011;14206;50.202;10.948;2023-09-07T05:48:26;2.20;;;2.00;;
26540;SDS011;14206;50.202;10.948;2023-09-07T05:50:54;2.08;;;1.70;;
26540;SDS011;14206;50.202;10.948;2023-09-07T05:53:21;3.45;;;1.77;;
26540;SDS011;14206;50.202;10.948;2023-09-07T05:55:48;1.77;;;1.67;;
26540;SDS011;14206;50.202;10.948;2023-09-07T05:58:15;2.38;;;1.90;;
26540;SDS011;14206;50.202;10.948;2023-09-07T06:00:43;1.95;;;1.75;;
26540;SDS011;14206;50.202;10.948;2023-09-07T06:03:10;1.90;;;1.70;;
26540;SDS011;14206;50.202;10.948;2023-09-07T06:05:38;2.10;;;1.90;;
26540;SDS011;14206;50.202;10.948;2023-09-07T06:08:07;2.13;;;1.92;;
26540;SDS011;14206;50.202;10.948;2023-09-07T06:10:35;1.85;;;1.70;;
26540;SDS011;14206;50.202;10.948;2023-09-07T06:13:03;2.15;;;1.95;;
26540;SDS011;14206;50.202;10.948;2023-09-07T06:15:31;2.15;;;1.95;;
26540;SDS011;14206;50.202;10.948;2023-09-07T06:17:58;2.20;;;1.88;;
26540;SDS011;14206;50.202;10.948;2023-09-07T06:20:25;2.20;;;2.00;;
26540;SDS011;14206;50.202;10.948;2023-09-07T06:22:56;2.03;;;1.83;;
26540;SDS011;14206;50.202;10.948;2023-09-07T06:25:23;3.15;;;1.80;;
26540;SDS011;14206;50.202;10.948;2023-09-07T06:27:51;2.20;;;2.00;;
26540;SDS011;14206;50.202;10.948;2023-09-07T06:30:18;1.67;;;1.58;;
26540;SDS011;14206;50.202;10.948;2023-09-07T06:32:45;2.17;;;1.98;;
26540;SDS011;14206;50.202;10.948;2023-09-07T06:35:14;2.17;;;1.98;;
26540;SDS011;14206;50.202;10.948;2023-09-07T06:37:41;3.35;;;2.08;;
26540;SDS011;14206;50.202;10.948;2023-09-07T06:40:11;2.78;;;1.88;;
26540;SDS011;14206;50.202;10.948;2023-09-07T06:42:40;1.77;;;1.67;;
26540;SDS011;14206;50.202;10.948;2023-09-07T06:45:14;2.17;;;1.90;;
26540;SDS011;14206;50.202;10.948;2023-09-07T06:47:41;1.85;;;1.75;;
26540;SDS011;14206;50.202;10.948;2023-09-07T06:50:09;1.83;;;1.73;;
26540;SDS011;14206;50.202;10.948;2023-09-07T06:52:37;2.30;;;2.10;;
26540;SDS011;14206;50.202;10.948;2023-09-07T06:55:05;2.30;;;2.10;;
26540;SDS011;14206;50.202;10.948;2023-09-07T06:57:32;2.67;;;2.45;;
26540;SDS011;14206;50.202;10.948;2023-09-07T07:00:02;2.50;;;2.20;;
26540;SDS011;14206;50.202;10.948;2023-09-07T07:02:34;3.45;;;2.10;;
26540;SDS011;14206;50.202;10.948;2023-09-07T07:05:02;2.20;;;2.00;;
26540;SDS011;14206;50.202;10.948;2023-09-07T07:07:29;2.08;;;1.88;;
26540;SDS011;14206;50.202;10.948;2023-09-07T07:09:57;1.80;;;1.70;;
26540;SDS011;14206;50.202;10.948;2023-09-07T07:12:24;2.65;;;2.08;;
26540;SDS011;14206;50.202;10.948;2023-09-07T07:14:53;2.75;;;2.22;;
26540;SDS011;14206;50.202;10.948;2023-09-07T07:17:19;2.30;;;2.10;;
26540;SDS011;14206;50.202;10.948;2023-09-07T07:19:48;3.10;;;1.90;;
26540;SDS011;14206;50.202;10.948;2023-09-07T07:22:15;2.45;;;2.10;;
26540;SDS011;14206;50.202;10.948;2023-09-07T07:24:47;2.20;;;1.90;;
26540;SDS011;14206;50.202;10.948;2023-09-07T07:27:14;2.20;;;2.00;;
26540;SDS011;14206;50.202;10.948;2023-09-07T07:29:41;3.92;;;2.20;;
26540;SDS011;14206;50.202;10.948;2023-09-07T07:32:08;1.88;;;1.77;;
26540;SDS011;14206;50.202;10.948;2023-09-07T07:34:38;2.40;;;2.08;;
26540;SDS011;14206;50.202;10.948;2023-09-07T07:37:12;1.83;;;1.73;;
26540;SDS011;14206;50.202;10.948;2023-09-07T07:39:39;1.88;;;1.77;;
26540;SDS011;14206;50.202;10.948;2023-09-07T07:42:07;1.52;;;1.42;;
26540;SDS011;14206;50.202;10.948;2023-09-07T07:44:34;1.80;;;1.70;;
26540;SDS011;14206;50.202;10.948;2023-09-07T07:47:01;2.75;;;2.03;;
26540;SDS011;14206;50.202;10.948;2023-09-07T07:49:28;2.03;;;1.83;;
26540;SDS011;14206;50.202;10.948;2023-09-07T07:51:55;2.05;;;1.85;;
26540;SDS011;14206;50.202;10.948;2023-09-07T07:54:24;2.13;;;1.83;;
26540;SDS011;14206;50.202;10.948;2023-09-07T07:56:53;2.45;;;1.80;;
26540;SDS011;14206;50.202;10.948;2023-09-07T07:59:21;1.83;;;1.73;;
26540;SDS011;14206;50.202;10.948;2023-09-07T08:01:48;2.20;;;1.80;;
26540;SDS011;14206;50.202;10.948;2023-09-07T08:04:15;2.10;;;1.80;;
26540;SDS011;14206;50.202;10.948;2023-09-07T08:06:45;1.58;;;1.48;;
26540;SDS011;14206;50.202;10.948;2023-09-07T08:09:13;1.83;;;1.60;;
26540;SDS011;14206;50.202;10.948;2023-09-07T08:11:40;1.73;;;1.63;;
26540;SDS011;14206;50.202;10.948;2023-09-07T08:14:09;1.63;;;1.52;;
26540;SDS011;14206;50.202;10.948;2023-09-07T08:16:37;2.45;;;1.30;;
26540;SDS011;14206;50.202;10.948;2023-09-07T08:19:04;1.60;;;1.50;;
26540;SDS011;14206;50.202;10.948;2023-09-07T08:21:31;1.40;;;1.30;;
26540;SDS011;14206;50.202;10.948;2023-09-07T08:23:58;1.83;;;1.40;;
26540;SDS011;14206;50.202;10.948;2023-09-07T08:26:26;1.95;;;1.70;;
26540;SDS011;14206;50.202;10.948;2023-09-07T08:28:53;1.80;;;1.70;;
26540;SDS011;14206;50.202;10.948;2023-09-07T08:31:20;2.17;;;1.50;;
26540;SDS011;14206;50.202;10.948;2023-09-07T08:33:49;1.60;;;1.50;;
26540;SDS011;14206;50.202;10.948;2023-09-07T08:36:21;2.10;;;1.60;;
26540;SDS011;14206;50.202;10.948;2023-09-07T08:38:50;1.70;;;1.60;;
26540;SDS011;14206;50.202;10.948;2023-09-07T08:41:20;1.67;;;1.45;;
26540;SDS011;14206;50.202;10.948;2023-09-07T08:43:51;1.50;;;1.40;;
26540;SDS011;14206;50.202;10.948;2023-09-07T08:46:19;1.50;;;1.40;;
26540;SDS011;14206;50.202;10.948;2023-09-07T08:48:47;2.05;;;1.50;;
26540;SDS011;14206;50.202;10.948;2023-09-07T08:51:16;1.48;;;1.38;;
26540;SDS011;14206;50.202;10.948;2023-09-07T08:53:45;1.42;;;1.33;;
26540;SDS011;14206;50.202;10.948;2023-09-07T08:56:13;2.13;;;1.60;;
26540;SDS011;14206;50.202;10.948;2023-09-07T08:58:41;2.10;;;1.52;;
26540;SDS011;14206;50.202;10.948;2023-09-07T09:01:11;3.47;;;1.90;;
26540;SDS011;14206;50.202;10.948;2023-09-07T09:03:39;1.90;;;1.80;;
26540;SDS011;14206;50.202;10.948;2023-09-07T09:06:08;1.90;;;1.70;;
26540;SDS011;14206;50.202;10.948;2023-09-07T09:08:42;1.77;;;1.67;;
26540;SDS011;14206;50.202;10.948;2023-09-07T09:11:16;1.70;;;1.60;;
26540;SDS011;14206;50.202;10.948;2023-09-07T09:13:44;1.60;;;1.50;;
26540;SDS011;14206;50.202;10.948;2023-09-07T09:16:12;1.60;;;1.50;;
26540;SDS011;14206;50.202;10.948;2023-09-07T09:18:53;1.70;;;1.60;;
26540;SDS011;14206;50.202;10.948;2023-09-07T09:21:30;1.40;;;1.30;;
26540;SDS011;14206;50.202;10.948;2023-09-07T09:23:58;1.55;;;1.10;;
26540;SDS011;14206;50.202;10.948;2023-09-07T09:26:26;1.23;;;1.15;;
26540;SDS011;14206;50.202;10.948;2023-09-07T09:28:56;1.50;;;1.40;;
26540;SDS011;14206;50.202;10.948;2023-09-07T09:31:23;1.67;;;1.20;;
26540;SDS011;14206;50.202;10.948;2023-09-07T09:33:51;2.03;;;1.70;;
26540;SDS011;14206;50.202;10.948;2023-09-07T09:36:19;1.60;;;1.45;;
26540;SDS011;14206;50.202;10.948;2023-09-07T09:38:47;1.50;;;1.40;;
26540;SDS011;14206;50.202;10.948;2023-09-07T09:41:21;1.33;;;1.23;;
26540;SDS011;14206;50.202;10.948;2023-09-07T09:43:49;1.50;;;1.40;;
26540;SDS011;14206;50.202;10.948;2023-09-07T09:46:18;3.08;;;1.50;;
26540;SDS011;14206;50.202;10.948;2023-09-07T09:48:45;1.70;;;1.40;;
26540;SDS011;14206;50.202;10.948;2023-09-07T09:51:14;1.67;;;1.58;;
26540;SDS011;14206;50.202;10.948;2023-09-07T09:53:42;1.70;;;1.60;;
26540;SDS011;14206;50.202;10.948;2023-09-07T09:56:09;1.65;;;1.40;;
26540;SDS011;14206;50.202;10.948;2023-09-07T09:58:36;1.50;;;1.30;;
26540;SDS011;14206;50.202;10.948;2023-09-07T10:01:04;1.90;;;1.33;;
26540;SDS011;14206;50.202;10.948;2023-09-07T10:03:33;1.27;;;1.17;;
26540;SDS011;14206;50.202;10.948;2023-09-07T10:06:23;1.48;;;1.17;;
26540;SDS011;14206;50.202;10.948;2023-09-07T10:08:55;1.40;;;1.20;;
26540;SDS011;14206;50.202;10.948;2023-09-07T10:11:35;1.75;;;1.48;;
26540;SDS011;14206;50.202;10.948;2023-09-07T10:14:06;1.60;;;1.50;;
26540;SDS011;14206;50.202;10.948;2023-09-07T10:16:47;1.48;;;1.30;;
26540;SDS011;14206;50.202;10.948;2023-09-07T10:19:17;3.38;;;1.70;;
26540;SDS011;14206;50.202;10.948;2023-09-07T10:21:48;1.63;;;1.30;;
26540;SDS011;14206;50.202;10.948;2023-09-07T10:27:03;3.50;;;1.50;;
26540;SDS011;14206;50.202;10.948;2023-09-07T10:29:49;1.58;;;1.48;;
26540;SDS011;14206;50.202;10.948;2023-09-07T10:32:22;1.27;;;1.17;;
26540;SDS011;14206;50.202;10.948;2023-09-07T10:34:49;1.17;;;1.10;;
26540;SDS011;14206;50.202;10.948;2023-09-07T10:37:17;2.00;;;1.40;;
26540;SDS011;14206;50.202;10.948;2023-09-07T10:39:50;2.70;;;1.45;;
26540;SDS011;14206;50.202;10.948;2023-09-07T10:42:26;1.25;;;1.13;;
26540;SDS011;14206;50.202;10.948;2023-09-07T10:44:53;1.40;;;1.30;;
26540;SDS011;14206;50.202;10.948;2023-09-07T10:47:20;1.52;;;1.40;;
26540;SDS011;14206;50.202;10.948;2023-09-07T10:49:48;2.05;;;1.75;;
26540;SDS011;14206;50.202;10.948;2023-09-07T10:52:15;1.60;;;1.50;;
26540;SDS011;14206;50.202;10.948;2023-09-07T10:54:42;1.95;;;1.70;;
26540;SDS011;14206;50.202;10.948;2023-09-07T10:57:10;3.00;;;1.67;;
26540;SDS011;14206;50.202;10.948;2023-09-07T10:59:49;1.92;;;1.58;;
26540;SDS011;14206;50.202;10.948;2023-09-07T11:02:16;1.65;;;1.52;;
26540;SDS011;14206;50.202;10.948;2023-09-07T11:04:43;2.83;;;1.38;;
26540;SDS011;14206;50.202;10.948;2023-09-07T11:07:19;2.63;;;1.30;;
26540;SDS011;14206;50.202;10.948;2023-09-07T11:09:46;2.05;;;1.40;;
26540;SDS011;14206;50.202;10.948;2023-09-07T11:12:19;1.20;;;1.10;;
26540;SDS011;14206;50.202;10.948;2023-09-07T11:14:47;1.88;;;1.30;;
26540;SDS011;14206;50.202;10.948;2023-09-07T11:17:15;1.58;;;1.40;;
26540;SDS011;14206;50.202;10.948;2023-09-07T11:19:42;2.78;;;1.35;;
26540;SDS011;14206;50.202;10.948;2023-09-07T11:22:10;1.40;;;1.27;;
26540;SDS011;14206;50.202;10.948;2023-09-07T11:24:37;1.48;;;1.38;;
26540;SDS011;14206;50.202;10.948;2023-09-07T11:27:04;1.30;;;1.20;;
26540;SDS011;14206;50.202;10.948;2023-09-07T11:29:31;1.27;;;1.17;;
26540;SDS011;14206;50.202;10.948;2023-09-07T11:32:05;1.60;;;1.50;;
26540;SDS011;14206;50.202;10.948;2023-09-07T11:34:57;2.22;;;1.20;;
26540;SDS011;14206;50.202;10.948;2023-09-07T11:37:25;1.33;;;1.23;;
26540;SDS011;14206;50.202;10.948;2023-09-07T11:39:53;1.45;;;1.35;;
26540;SDS011;14206;50.202;10.948;2023-09-07T11:42:20;1.30;;;1.20;;
26540;SDS011;14206;50.202;10.948;2023-09-07T11:44:47;2.08;;;1.30;;
26540;SDS011;14206;50.202;10.948;2023-09-07T11:47:14;1.30;;;1.20;;
26540;SDS011;14206;50.202;10.948;2023-09-07T11:49:41;1.45;;;1.20;;
26540;SDS011;14206;50.202;10.948;2023-09-07T11:52:08;1.40;;;1.30;;
26540;SDS011;14206;50.202;10.948;2023-09-07T11:54:35;1.35;;;1.25;;
26540;SDS011;14206;50.202;10.948;2023-09-07T11:57:02;1.83;;;1.10;;
26540;SDS011;14206;50.202;10.948;2023-09-07T11:59:29;1.55;;;1.10;;
26540;SDS011;14206;50.202;10.948;2023-09-07T12:02:13;1.33;;;1.10;;
26540;SDS011;14206;50.202;10.948;2023-09-07T12:04:41;1.33;;;1.23;;
26540;SDS011;14206;50.202;10.948;2023-09-07T12:07:08;2.15;;;1.60;;
26540;SDS011;14206;50.202;10.948;2023-09-07T12:09:36;1.42;;;1.30;;
26540;SDS011;14206;50.202;10.948;2023-09-07T12:12:03;1.48;;;1.38;;
26540;SDS011;14206;50.202;10.948;2023-09-07T12:14:30;1.60;;;1.48;;
26540;SDS011;14206;50.202;10.948;2023-09-07T12:16:57;2.50;;;1.45;;
26540;SDS011;14206;50.202;10.948;2023-09-07T12:19:28;1.65;;;1.40;;
26540;SDS011;14206;50.202;10.948;2023-09-07T12:21:55;2.03;;;1.80;;
26540;SDS011;14206;50.202;10.948;2023-09-07T12:24:22;2.78;;;1.50;;
26540;SDS011;14206;50.202;10.948;2023-09-07T12:26:49;1.98;;;1.35;;
26540;SDS011;14206;50.202;10.948;2023-09-07T12:29:16;1.98;;;1.25;;
26540;SDS011;14206;50.202;10.948;2023-09-07T12:31:43;1.75;;;1.40;;
26540;SDS011;14206;50.202;10.948;2023-09-07T12:34:10;2.05;;;1.85;;
26540;SDS011;14206;50.202;10.948;2023-09-07T12:36:38;1.30;;;1.20;;
26540;SDS011;14206;50.202;10.948;2023-09-07T12:39:05;2.22;;;1.67;;
26540;SDS011;14206;50.202;10.948;2023-09-07T12:41:32;2.05;;;1.48;;
26540;SDS011;14206;50.202;10.948;2023-09-07T12:43:59;1.33;;;1.23;;
26540;SDS011;14206;50.202;10.948;2023-09-07T12:46:26;1.90;;;1.45;;
26540;SDS011;14206;50.202;10.948;2023-09-07T12:48:52;1.30;;;1.20;;
26540;SDS011;14206;50.202;10.948;2023-09-07T12:51:19;1.50;;;1.40;;
26540;SDS011;14206;50.202;10.948;2023-09-07T12:53:46;1.50;;;1.40;;
26540;SDS011;14206;50.202;10.948;2023-09-07T12:56:13;1.48;;;1.38;;
26540;SDS011;14206;50.202;10.948;2023-09-07T12:58:42;1.73;;;1.63;;
26540;SDS011;14206;50.202;10.948;2023-09-07T13:01:09;1.70;;;1.60;;
26540;SDS011;14206;50.202;10.948;2023-09-07T13:03:39;1.80;;;1.63;;
26540;SDS011;14206;50.202;10.948;2023-09-07T13:06:06;1.80;;;1.70;;
26540;SDS011;14206;50.202;10.948;2023-09-07T13:08:33;2.83;;;1.90;;
26540;SDS011;14206;50.202;10.948;2023-09-07T13:11:02;2.35;;;2.13;;
26540;SDS011;14206;50.202;10.948;2023-09-07T13:13:30;2.75;;;1.80;;
26540;SDS011;14206;50.202;10.948;2023-09-07T13:15:57;1.60;;;1.50;;
26540;SDS011;14206;50.202;10.948;2023-09-07T13:18:25;2.40;;;1.80;;
26540;SDS011;14206;50.202;10.948;2023-09-07T13:20:52;2.10;;;1.90;;
26540;SDS011;14206;50.202;10.948;2023-09-07T13:23:26;1.75;;;1.55;;
26540;SDS011;14206;50.202;10.948;2023-09-07T13:26:03;2.33;;;1.80;;
26540;SDS011;14206;50.202;10.948;2023-09-07T13:28:29;1.90;;;1.70;;
26540;SDS011;14206;50.202;10.948;2023-09-07T13:30:58;2.00;;;1.73;;
26540;SDS011;14206;50.202;10.948;2023-09-07T13:33:25;1.80;;;1.70;;
26540;SDS011;14206;50.202;10.948;2023-09-07T13:35:52;2.10;;;1.88;;
26540;SDS011;14206;50.202;10.948;2023-09-07T13:38:19;2.05;;;1.75;;
26540;SDS011;14206;50.202;10.948;2023-09-07T13:40:46;4.18;;;1.80;;
26540;SDS011;14206;50.202;10.948;2023-09-07T13:43:13;1.80;;;1.58;;
26540;SDS011;14206;50.202;10.948;2023-09-07T13:45:40;2.63;;;1.33;;
26540;SDS011;14206;50.202;10.948;2023-09-07T13:48:07;1.92;;;1.40;;
26540;SDS011;14206;50.202;10.948;2023-09-07T13:50:34;2.00;;;1.40;;
26540;SDS011;14206;50.202;10.948;2023-09-07T13:53:02;1.30;;;1.20;;
26540;SDS011;14206;50.202;10.948;2023-09-07T13:55:29;3.15;;;1.40;;
26540;SDS011;14206;50.202;10.948;2023-09-07T13:57:56;1.83;;;1.45;;
26540;SDS011;14206;50.202;10.948;2023-09-07T14:00:23;1.50;;;1.30;;
26540;SDS011;14206;50.202;10.948;2023-09-07T14:02:56;2.08;;;1.75;;
26540;SDS011;14206;50.202;10.948;2023-09-07T14:05:23;4.20;;;2.03;;
26540;SDS011;14206;50.202;10.948;2023-09-07T14:07:50;1.63;;;1.52;;
26540;SDS011;14206;50.202;10.948;2023-09-07T14:10:17;2.05;;;1.42;;
26540;SDS011;14206;50.202;10.948;2023-09-07T14:12:44;3.35;;;1.73;;
26540;SDS011;14206;50.202;10.948;2023-09-07T14:15:13;1.48;;;1.38;;
26540;SDS011;14206;50.202;10.948;2023-09-07T14:17:40;2.95;;;1.55;;
26540;SDS011;14206;50.202;10.948;2023-09-07T14:20:13;1.45;;;1.35;;
26540;SDS011;14206;50.202;10.948;2023-09-07T14:22:40;1.60;;;1.50;;
26540;SDS011;14206;50.202;10.948;2023-09-07T14:25:07;1.40;;;1.30;;
26540;SDS011;14206;50.202;10.948;2023-09-07T14:27:34;2.20;;;1.50;;
26540;SDS011;14206;50.202;10.948;2023-09-07T14:30:01;1.58;;;1.48;;
26540;SDS011;14206;50.202;10.948;2023-09-07T14:32:29;1.40;;;1.30;;
26540;SDS011;14206;50.202;10.948;2023-09-07T14:34:56;1.55;;;1.45;;
26540;SDS011;14206;50.202;10.948;2023-09-07T14:37:23;1.30;;;1.20;;
26540;SDS011;14206;50.202;10.948;2023-09-07T14:39:50;1.70;;;1.60;;
26540;SDS011;14206;50.202;10.948;2023-09-07T14:42:20;1.65;;;1.50;;
26540;SDS011;14206;50.202;10.948;2023-09-07T14:44:47;1.30;;;1.20;;
26540;SDS011;14206;50.202;10.948;2023-09-07T14:47:14;1.63;;;1.50;;